createdAt,value
2022-11-24T00:01:18.120Z,4.94
2022-11-24T00:03:46.697Z,4.76
2022-11-24T00:06:15.625Z,5.07
2022-11-24T00:08:44.500Z,4.85
2022-11-24T00:11:14.916Z,5.08
2022-11-24T00:13:41.926Z,4.91
2022-11-24T00:16:16.861Z,4.86
2022-11-24T00:18:46.644Z,5.08
2022-11-24T00:21:15.531Z,5.06
2022-11-24T00:23:43.415Z,4.82
2022-11-24T00:26:28.065Z,4.77
2022-11-24T00:28:56.962Z,5.05
2022-11-24T00:31:27.700Z,4.72
2022-11-24T00:33:56.914Z,4.78
2022-11-24T00:36:25.883Z,5.04
2022-11-24T00:39:04.737Z,4.98
2022-11-24T00:41:31.740Z,5.03
2022-11-24T00:43:59.761Z,4.75
2022-11-24T00:46:27.969Z,4.96
2022-11-24T00:48:55.377Z,5.05
2022-11-24T00:51:26.176Z,4.75
2022-11-24T00:53:53.552Z,4.59
2022-11-24T00:56:20.456Z,4.82
2022-11-24T00:58:47.429Z,4.73
2022-11-24T01:01:18.378Z,4.66
2022-11-24T01:03:46.917Z,4.89
2022-11-24T01:06:19.896Z,4.55
2022-11-24T01:08:47.350Z,4.71
2022-11-24T01:11:15.815Z,4.88
2022-11-24T01:13:44.670Z,4.92
2022-11-24T01:16:38.881Z,4.90
2022-11-24T01:19:05.746Z,4.62
2022-11-24T01:21:32.617Z,4.67
2022-11-24T01:23:59.513Z,4.72
2022-11-24T01:26:26.645Z,4.67
2022-11-24T01:28:57.545Z,4.90
2022-11-24T01:31:26.720Z,4.80
2022-11-24T01:33:54.526Z,4.81
2022-11-24T01:36:22.450Z,4.76
2022-11-24T01:38:49.824Z,4.74
2022-11-24T01:41:20.528Z,4.74
2022-11-24T01:43:48.437Z,5.01
2022-11-24T01:46:28.924Z,5.02
2022-11-24T01:49:13.888Z,4.89
2022-11-24T01:51:48.218Z,4.62
2022-11-24T01:54:21.804Z,4.02
2022-11-24T01:56:53.860Z,4.48
2022-11-24T01:59:21.944Z,4.47
2022-11-24T02:01:51.577Z,4.50
2022-11-24T02:04:24.244Z,4.04
2022-11-24T02:06:52.950Z,4.45
2022-11-24T02:09:31.448Z,4.40
2022-11-24T02:12:01.161Z,4.32
2022-11-24T02:14:28.229Z,4.37
2022-11-24T02:16:55.097Z,4.44
2022-11-24T02:19:34.907Z,4.51
2022-11-24T02:22:03.796Z,4.44
2022-11-24T02:24:41.492Z,4.41
2022-11-24T02:27:10.612Z,4.57
2022-11-24T02:29:38.237Z,4.40
2022-11-24T02:32:07.640Z,4.44
2022-11-24T02:34:34.970Z,4.26
2022-11-24T02:37:02.077Z,4.50
2022-11-24T02:39:28.947Z,4.41
2022-11-24T02:42:05.986Z,4.57
2022-11-24T02:44:39.588Z,4.26
2022-11-24T02:47:09.761Z,4.50
2022-11-24T02:49:36.809Z,4.67
2022-11-24T02:52:04.521Z,4.64
2022-11-24T02:54:31.927Z,4.44
2022-11-24T02:56:59.463Z,4.66
2022-11-24T02:59:26.558Z,4.46
2022-11-24T03:01:53.644Z,4.60
2022-11-24T03:04:20.731Z,4.60
2022-11-24T03:06:47.805Z,4.44
2022-11-24T03:09:14.657Z,4.38
2022-11-24T03:11:41.567Z,4.38
2022-11-24T03:14:08.812Z,4.66
2022-11-24T03:16:36.107Z,4.64
2022-11-24T03:19:03.231Z,4.66
2022-11-24T03:21:30.226Z,4.33
2022-11-24T03:23:57.492Z,4.44
2022-11-24T03:26:26.335Z,4.66
2022-11-24T03:28:55.576Z,4.01
2022-11-24T03:31:23.762Z,4.52
2022-11-24T03:33:50.789Z,4.45
2022-11-24T03:36:17.863Z,4.15
2022-11-24T03:38:44.914Z,4.28
2022-11-24T03:41:12.014Z,4.26
2022-11-24T03:43:43.473Z,4.43
2022-11-24T03:46:12.185Z,4.49
2022-11-24T03:48:39.353Z,4.28
2022-11-24T03:51:06.523Z,4.57
2022-11-24T03:53:33.785Z,4.36
2022-11-24T03:56:02.189Z,4.51
2022-11-24T03:58:29.745Z,4.51
2022-11-24T04:00:56.865Z,4.65
2022-11-24T04:03:24.504Z,4.34
2022-11-24T04:05:51.735Z,4.57
2022-11-24T04:08:19.535Z,4.28
2022-11-24T04:10:51.362Z,4.56
2022-11-24T04:13:21.512Z,4.54
2022-11-24T04:15:48.531Z,4.30
2022-11-24T04:18:15.707Z,4.16
2022-11-24T04:20:43.068Z,4.26
2022-11-24T04:23:11.422Z,4.48
2022-11-24T04:25:38.930Z,4.15
2022-11-24T04:28:06.276Z,3.66
2022-11-24T04:30:33.202Z,4.28
2022-11-24T04:33:00.127Z,3.81
2022-11-24T04:35:27.356Z,4.12
2022-11-24T04:37:54.700Z,3.94
2022-11-24T04:40:21.632Z,4.49
2022-11-24T04:42:55.503Z,4.32
2022-11-24T04:45:23.683Z,4.20
2022-11-24T04:47:50.519Z,4.38
2022-11-24T04:50:17.718Z,4.48
2022-11-24T04:52:44.640Z,4.26
2022-11-24T04:55:11.567Z,4.12
2022-11-24T04:57:38.621Z,4.09
2022-11-24T05:00:06.515Z,4.51
2022-11-24T05:02:33.426Z,4.43
2022-11-24T05:05:00.303Z,4.35
2022-11-24T05:07:27.581Z,4.30
2022-11-24T05:10:13.150Z,4.29
2022-11-24T05:12:40.122Z,4.18
2022-11-24T05:15:07.732Z,4.36
2022-11-24T05:17:39.195Z,4.47
2022-11-24T05:20:07.540Z,4.29
2022-11-24T05:22:34.639Z,4.49
2022-11-24T05:25:01.969Z,4.23
2022-11-24T05:27:28.932Z,4.29
2022-11-24T05:29:55.913Z,4.22
2022-11-24T05:32:23.108Z,4.31
2022-11-24T05:34:50.024Z,4.11
2022-11-24T05:37:17.921Z,4.12
2022-11-24T05:39:44.784Z,4.41
2022-11-24T05:42:30.383Z,4.38
2022-11-24T05:44:57.770Z,4.24
2022-11-24T05:47:24.807Z,4.35
2022-11-24T05:49:52.133Z,4.08
2022-11-24T05:52:19.098Z,4.23
2022-11-24T05:54:45.948Z,4.34
2022-11-24T05:57:13.353Z,3.99
2022-11-24T05:59:40.348Z,4.33
2022-11-24T06:02:07.434Z,4.33
2022-11-24T06:04:34.703Z,4.33
2022-11-24T06:07:02.043Z,4.00
2022-11-24T06:09:28.957Z,4.38
2022-11-24T06:11:56.167Z,4.38
2022-11-24T06:14:23.245Z,4.09
2022-11-24T06:16:50.442Z,4.05
2022-11-24T06:19:17.332Z,4.44
2022-11-24T06:21:44.246Z,4.09
2022-11-24T06:24:11.400Z,4.44
2022-11-24T06:26:38.303Z,4.36
2022-11-24T06:29:05.391Z,4.41
2022-11-24T06:31:32.868Z,4.48
2022-11-24T06:34:00.948Z,4.27
2022-11-24T06:36:28.073Z,4.25
2022-11-24T06:38:54.988Z,4.33
2022-11-24T06:41:21.931Z,4.53
2022-11-24T06:43:48.775Z,4.19
2022-11-24T06:46:15.767Z,4.37
2022-11-24T06:48:42.700Z,4.38
2022-11-24T06:51:13.120Z,4.38
2022-11-24T06:53:41.084Z,4.07
2022-11-24T06:56:16.648Z,4.55
2022-11-24T06:58:45.880Z,4.50
2022-11-24T07:01:20.658Z,4.62
2022-11-24T07:03:48.515Z,4.65
2022-11-24T07:06:16.932Z,4.66
2022-11-24T07:08:44.138Z,4.61
2022-11-24T07:11:15.789Z,4.65
2022-11-24T07:13:43.447Z,4.61
2022-11-24T07:16:19.415Z,4.78
2022-11-24T07:18:47.845Z,4.83
2022-11-24T07:21:15.530Z,4.91
2022-11-24T07:23:42.842Z,4.95
2022-11-24T07:26:12.321Z,5.22
2022-11-24T07:28:39.267Z,5.09
2022-11-24T07:31:07.717Z,5.30
2022-11-24T07:33:35.252Z,5.25
2022-11-24T07:36:05.394Z,5.58
2022-11-24T07:38:33.539Z,5.63
2022-11-24T07:41:07.759Z,5.77
2022-11-24T07:43:36.743Z,5.85
2022-11-24T07:46:05.901Z,5.97
2022-11-24T07:48:34.644Z,5.88
2022-11-24T07:51:02.971Z,6.16
2022-11-24T07:53:30.650Z,6.16
2022-11-24T07:56:03.423Z,6.38
2022-11-24T07:58:33.140Z,6.47
2022-11-24T08:01:08.689Z,6.59
2022-11-24T08:03:35.901Z,6.53
2022-11-24T08:08:49.895Z,6.89
2022-11-24T08:11:18.305Z,7.04
2022-11-24T08:13:45.467Z,6.89
2022-11-24T08:16:15.204Z,7.09
2022-11-24T08:18:43.284Z,7.39
2022-11-24T08:21:14.530Z,7.46
2022-11-24T08:23:42.138Z,7.55
2022-11-24T08:26:13.952Z,7.55
2022-11-24T08:28:41.300Z,7.46
2022-11-24T08:31:15.954Z,7.53
2022-11-24T08:33:43.394Z,7.83
2022-11-24T08:36:13.520Z,7.90
2022-11-24T08:38:41.209Z,7.82
2022-11-24T08:41:13.635Z,7.84
2022-11-24T08:43:41.004Z,8.04
2022-11-24T08:46:10.736Z,8.08
2022-11-24T08:48:37.862Z,7.85
2022-11-24T08:51:13.768Z,8.20
2022-11-24T08:53:41.794Z,8.07
2022-11-24T08:56:10.073Z,8.02
2022-11-24T08:58:37.824Z,8.38
2022-11-24T09:01:14.138Z,8.43
2022-11-24T09:03:49.752Z,8.53
2022-11-24T09:06:25.412Z,8.37
2022-11-24T09:08:54.327Z,8.56
2022-11-24T09:11:21.863Z,8.72
2022-11-24T09:13:48.866Z,8.58
2022-11-24T09:16:19.250Z,8.76
2022-11-24T09:18:47.369Z,8.90
2022-11-24T09:21:21.940Z,9.00
2022-11-24T09:23:50.947Z,9.07
2022-11-24T09:26:19.470Z,9.12
2022-11-24T09:28:47.232Z,9.01
2022-11-24T09:31:17.730Z,9.01
2022-11-24T09:33:45.402Z,9.02
2022-11-24T09:36:12.687Z,9.02
2022-11-24T09:38:40.163Z,8.96
2022-11-24T09:41:24.960Z,9.28
2022-11-24T09:44:22.058Z,9.32
2022-11-24T09:46:58.868Z,9.38
2022-11-24T09:49:59.137Z,9.42
2022-11-24T09:52:41.501Z,9.28
2022-11-24T09:55:42.320Z,9.47
2022-11-24T09:58:30.983Z,9.59
2022-11-24T10:01:02.017Z,9.62
2022-11-24T10:03:37.863Z,9.57
2022-11-24T10:06:34.881Z,9.46
2022-11-24T10:09:07.455Z,9.67
2022-11-24T10:12:03.801Z,9.75
2022-11-24T10:14:39.457Z,9.78
2022-11-24T10:17:26.627Z,9.86
2022-11-24T10:20:21.082Z,9.99
2022-11-24T10:22:54.002Z,9.94
2022-11-24T10:25:52.116Z,9.89
2022-11-24T10:28:19.222Z,9.72
2022-11-24T10:30:46.202Z,9.77
2022-11-24T10:33:22.185Z,9.78
2022-11-24T10:36:09.697Z,9.62
2022-11-24T10:38:44.243Z,9.83
2022-11-24T10:41:18.993Z,9.76
2022-11-24T10:43:46.008Z,9.66
2022-11-24T10:46:26.620Z,9.82
2022-11-24T10:49:03.927Z,10.04
2022-11-24T10:51:30.812Z,10.07
2022-11-24T10:54:05.453Z,10.12
2022-11-24T10:56:40.473Z,10.14
2022-11-24T10:59:29.603Z,10.15
2022-11-24T11:01:56.789Z,10.39
2022-11-24T11:04:28.462Z,10.49
2022-11-24T11:07:22.421Z,10.50
2022-11-24T11:09:49.646Z,10.13
2022-11-24T11:15:31.488Z,10.40
2022-11-24T11:18:00.361Z,10.37
2022-11-24T11:20:34.357Z,10.35
2022-11-24T11:23:14.564Z,10.00
2022-11-24T11:25:41.547Z,10.30
2022-11-24T11:28:18.654Z,10.21
2022-11-24T11:31:16.643Z,10.19
2022-11-24T11:34:09.399Z,10.19
2022-11-24T11:36:45.202Z,9.85
2022-11-24T11:39:36.221Z,9.86
2022-11-24T11:43:03.649Z,10.04
2022-11-24T11:45:25.813Z,9.97
2022-11-24T11:47:52.711Z,9.88
2022-11-24T11:51:06.757Z,9.49
2022-11-24T11:53:47.280Z,9.85
2022-11-24T11:56:30.292Z,9.67
2022-11-24T11:59:14.936Z,9.87
2022-11-24T12:01:58.751Z,9.86
2022-11-24T12:04:53.068Z,9.88
2022-11-24T12:08:20.465Z,9.75
2022-11-24T12:11:14.154Z,9.85
2022-11-24T12:13:50.144Z,9.88
2022-11-24T12:16:20.097Z,9.85
2022-11-24T12:18:57.965Z,9.74
2022-11-24T12:21:34.128Z,9.70
2022-11-24T12:24:30.734Z,9.52
2022-11-24T12:27:23.067Z,9.55
2022-11-24T12:30:02.289Z,9.70
2022-11-24T12:32:47.342Z,9.73
2022-11-24T12:35:33.420Z,9.81
2022-11-24T12:38:15.844Z,9.86
2022-11-24T12:41:06.439Z,9.87
2022-11-24T12:43:50.398Z,9.69
2022-11-24T12:46:48.287Z,9.91
2022-11-24T12:49:24.197Z,9.92
2022-11-24T12:52:05.807Z,9.91
2022-11-24T12:54:40.427Z,9.76
2022-11-24T12:57:25.331Z,9.88
2022-11-24T13:00:13.760Z,9.91
2022-11-24T13:02:49.803Z,9.92
2022-11-24T13:05:20.423Z,9.91
2022-11-24T13:07:54.719Z,9.91
2022-11-24T13:10:40.409Z,9.91
2022-11-24T13:13:13.759Z,9.93
2022-11-24T13:16:07.061Z,9.93
2022-11-24T13:18:47.203Z,9.89
2022-11-24T13:21:32.394Z,9.85
2022-11-24T13:24:01.344Z,9.79
2022-11-24T13:33:16.799Z,9.70
2022-11-24T13:36:02.921Z,9.62
2022-11-24T13:38:42.257Z,9.47
2022-11-24T13:41:28.036Z,9.44
2022-11-24T13:44:13.892Z,9.50
2022-11-24T13:47:06.515Z,9.33
2022-11-24T13:49:50.382Z,9.06
2022-11-24T13:52:36.379Z,9.29
2022-11-24T13:55:21.095Z,9.26
2022-11-24T13:57:58.686Z,9.15
2022-11-24T14:00:58.556Z,8.84
2022-11-24T14:03:44.529Z,8.55
2022-11-24T14:06:38.127Z,8.27
2022-11-24T14:09:30.799Z,7.98
2022-11-24T14:12:25.035Z,7.64
2022-11-24T14:14:57.155Z,8.03
2022-11-24T14:17:28.705Z,7.96
2022-11-24T14:19:58.033Z,7.92
2022-11-24T14:22:31.621Z,7.90
2022-11-24T14:25:01.043Z,7.93
2022-11-24T14:27:31.793Z,7.58
2022-11-24T14:30:26.376Z,7.77
2022-11-24T14:33:01.248Z,7.82
2022-11-24T14:35:32.441Z,7.92
2022-11-24T14:38:02.229Z,7.72
2022-11-24T14:40:44.095Z,7.76
2022-11-24T14:43:24.388Z,8.08
2022-11-24T14:45:58.318Z,7.75
2022-11-24T14:48:49.954Z,8.11
2022-11-24T14:51:35.507Z,8.02
2022-11-24T14:54:14.039Z,8.10
2022-11-24T14:56:41.118Z,8.15
2022-11-24T14:59:25.505Z,8.20
2022-11-24T15:01:52.662Z,8.16
2022-11-24T15:07:27.327Z,8.23
2022-11-24T15:10:00.284Z,7.86
2022-11-24T15:12:29.125Z,8.22
2022-11-24T15:15:14.781Z,8.25
2022-11-24T15:17:55.138Z,8.15
2022-11-24T15:20:24.957Z,8.29
2022-11-24T15:23:11.860Z,8.27
2022-11-24T15:25:39.359Z,8.25
2022-11-24T15:28:07.733Z,8.07
2022-11-24T15:30:36.843Z,8.16
2022-11-24T15:33:11.591Z,8.18
2022-11-24T15:35:38.571Z,8.20
2022-11-24T15:38:05.564Z,7.93
2022-11-24T15:40:32.675Z,8.26
2022-11-24T15:43:06.131Z,8.15
2022-11-24T15:45:34.713Z,7.92
2022-11-24T15:48:01.636Z,8.22
2022-11-24T15:50:28.763Z,7.84
2022-11-24T15:52:57.446Z,8.18
2022-11-24T15:55:24.469Z,8.05
2022-11-24T15:57:51.387Z,7.91
2022-11-24T16:00:21.324Z,8.13
2022-11-24T16:02:49.078Z,8.06
2022-11-24T16:23:39.511Z,8.09
2022-11-24T16:26:07.045Z,8.07
2022-11-24T16:28:34.169Z,7.96
2022-11-24T16:31:01.446Z,7.68
2022-11-24T16:33:30.178Z,6.61
2022-11-24T16:35:57.245Z,8.15
2022-11-24T16:38:24.230Z,7.54
2022-11-24T16:40:56.483Z,7.87
2022-11-24T16:43:24.674Z,8.17
2022-11-24T16:46:03.392Z,7.94
2022-11-24T16:48:36.157Z,7.96
2022-11-24T16:51:08.212Z,8.07
2022-11-24T16:53:35.112Z,8.03
2022-11-24T16:56:02.357Z,7.94
2022-11-24T16:58:29.396Z,8.06
2022-11-24T17:01:03.641Z,8.02
2022-11-24T17:03:37.234Z,7.82
2022-11-24T17:06:06.301Z,7.75
2022-11-24T17:08:35.597Z,8.15
2022-11-24T17:11:10.731Z,7.99
2022-11-24T17:13:38.240Z,7.89
2022-11-24T17:16:12.275Z,8.13
2022-11-24T17:18:40.161Z,7.87
2022-11-24T17:21:11.736Z,7.88
2022-11-24T17:23:38.931Z,8.15
2022-11-24T17:26:08.441Z,8.15
2022-11-24T17:28:35.840Z,7.96
2022-11-24T17:31:25.615Z,8.15
2022-11-24T17:33:55.229Z,8.09
2022-11-24T17:36:22.985Z,7.92
2022-11-24T17:38:50.427Z,8.06
2022-11-24T17:41:21.554Z,7.88
2022-11-24T17:43:53.183Z,7.58
2022-11-24T17:46:20.191Z,8.05
2022-11-24T17:48:47.579Z,7.78
2022-11-24T17:51:16.944Z,7.94
2022-11-24T17:53:46.673Z,8.03
2022-11-24T17:56:16.330Z,7.69
2022-11-24T17:58:43.705Z,7.73
2022-11-24T18:01:12.840Z,7.91
2022-11-24T18:03:40.738Z,7.92
2022-11-24T18:06:12.310Z,7.39
2022-11-24T18:08:41.954Z,7.84
2022-11-24T18:11:11.234Z,7.61
2022-11-24T18:13:56.637Z,7.37
2022-11-24T18:16:28.251Z,7.48
2022-11-24T18:19:07.808Z,7.31
2022-11-24T18:21:36.789Z,7.62
2022-11-24T18:24:04.036Z,7.57
2022-11-24T18:26:30.995Z,6.82
2022-11-24T18:28:57.980Z,7.65
2022-11-24T18:31:26.329Z,7.67
2022-11-24T18:33:53.307Z,7.38
2022-11-24T18:36:30.069Z,7.66
2022-11-24T18:39:01.167Z,7.47
2022-11-24T18:41:28.165Z,7.66
2022-11-24T18:43:55.098Z,7.17
2022-11-24T18:46:22.194Z,7.60
2022-11-24T18:48:51.538Z,7.69
2022-11-24T18:51:18.874Z,7.36
2022-11-24T18:53:47.057Z,7.47
2022-11-24T18:56:16.709Z,7.33
2022-11-24T18:58:44.342Z,7.62
2022-11-24T19:01:19.485Z,7.65
2022-11-24T19:03:49.489Z,7.59
2022-11-24T19:06:28.852Z,7.22
2022-11-24T19:08:56.206Z,7.40
2022-11-24T19:11:25.531Z,7.57
2022-11-24T19:13:52.547Z,7.25
2022-11-24T19:16:20.970Z,7.53
2022-11-24T19:18:53.722Z,6.97
2022-11-24T19:21:21.971Z,7.34
2022-11-24T19:23:49.711Z,7.47
2022-11-24T19:26:16.653Z,7.45
2022-11-24T19:28:43.996Z,7.40
2022-11-24T19:31:13.404Z,7.04
2022-11-24T19:33:41.379Z,7.34
2022-11-24T19:36:13.922Z,7.23
2022-11-24T19:38:41.503Z,7.29
2022-11-24T19:41:13.463Z,7.17
2022-11-24T19:43:41.110Z,7.10
2022-11-24T19:46:13.665Z,7.09
2022-11-24T19:48:43.365Z,7.03
2022-11-24T19:51:16.569Z,6.76
2022-11-24T19:53:44.279Z,6.50
2022-11-24T19:56:16.881Z,6.84
2022-11-24T19:58:44.322Z,6.52
2022-11-24T20:01:16.883Z,6.32
2022-11-24T20:03:45.347Z,6.29
2022-11-24T20:06:13.872Z,5.95
2022-11-24T20:08:42.415Z,6.14
2022-11-24T20:11:12.696Z,5.79
2022-11-24T20:13:41.498Z,6.09
2022-11-24T20:16:13.440Z,5.77
2022-11-24T20:18:44.169Z,5.59
2022-11-24T20:21:17.012Z,5.74
2022-11-24T20:23:45.596Z,5.68
2022-11-24T20:26:15.821Z,5.85
2022-11-24T20:28:43.353Z,5.81
2022-11-24T20:31:16.299Z,5.77
2022-11-24T20:33:43.876Z,5.32
2022-11-24T20:36:13.955Z,5.34
2022-11-24T20:38:42.107Z,5.64
2022-11-24T20:41:10.764Z,5.60
2022-11-24T20:43:38.938Z,5.63
2022-11-24T20:46:09.104Z,5.30
2022-11-24T20:48:37.514Z,5.28
2022-11-24T20:51:15.744Z,5.26
2022-11-24T20:53:42.820Z,5.51
2022-11-24T20:56:18.683Z,5.26
2022-11-24T20:58:46.665Z,5.47
2022-11-24T21:01:22.211Z,5.42
2022-11-24T21:03:53.999Z,5.43
2022-11-24T21:06:20.939Z,5.53
2022-11-24T21:08:48.233Z,5.39
2022-11-24T21:11:16.176Z,5.44
2022-11-24T21:13:45.612Z,5.31
2022-11-24T21:16:24.707Z,5.09
2022-11-24T21:18:55.130Z,5.05
2022-11-24T21:21:23.219Z,5.15
2022-11-24T21:23:50.503Z,5.17
2022-11-24T21:26:19.006Z,4.80
2022-11-24T21:28:47.614Z,4.75
2022-11-24T21:31:21.259Z,5.00
2022-11-24T21:33:50.231Z,4.92
2022-11-24T21:36:19.814Z,4.58
2022-11-24T21:38:57.395Z,4.87
2022-11-24T21:41:27.484Z,4.52
2022-11-24T21:43:56.073Z,4.77
2022-11-24T21:46:23.827Z,4.74
2022-11-24T21:48:51.153Z,4.73
2022-11-24T21:51:20.161Z,4.49
2022-11-24T21:53:48.014Z,4.75
2022-11-24T21:56:17.300Z,4.84
2022-11-24T21:58:52.526Z,4.74
2022-11-24T22:01:22.543Z,4.80
2022-11-24T22:03:50.214Z,4.41
2022-11-24T22:06:20.880Z,4.62
2022-11-24T22:08:49.231Z,4.37
2022-11-24T22:11:19.293Z,4.74
2022-11-24T22:13:47.548Z,4.66
2022-11-24T22:16:17.093Z,4.57
2022-11-24T22:18:45.316Z,4.36
2022-11-24T22:21:17.772Z,4.55
2022-11-24T22:23:44.891Z,4.61
2022-11-24T22:26:17.479Z,4.59
2022-11-24T22:28:45.433Z,4.27
2022-11-24T22:31:17.948Z,4.19
2022-11-24T22:33:45.248Z,4.23
2022-11-24T22:36:13.712Z,4.13
2022-11-24T22:38:41.207Z,3.99
2022-11-24T22:41:11.219Z,4.27
2022-11-24T22:43:39.400Z,4.46
2022-11-24T22:46:11.907Z,4.36
2022-11-24T22:48:39.330Z,4.01
2022-11-24T22:51:08.514Z,4.45
2022-11-24T22:53:35.883Z,4.36
2022-11-24T22:56:04.618Z,4.44
2022-11-24T22:58:33.102Z,4.31
2022-11-24T23:01:12.743Z,4.19
2022-11-24T23:03:40.610Z,3.98
2022-11-24T23:06:12.019Z,4.04
2022-11-24T23:08:39.300Z,3.93
2022-11-24T23:11:15.049Z,4.47
2022-11-24T23:13:42.647Z,4.34
2022-11-24T23:16:17.784Z,4.39
2022-11-24T23:18:51.060Z,4.08
2022-11-24T23:21:23.798Z,4.17
2022-11-24T23:23:52.849Z,4.17
2022-11-24T23:26:26.708Z,3.99
2022-11-24T23:28:53.749Z,4.09
2022-11-24T23:31:24.361Z,4.18
2022-11-24T23:33:51.481Z,4.00
2022-11-24T23:36:20.443Z,4.10
2022-11-24T23:38:48.509Z,4.13
2022-11-24T23:41:21.679Z,3.83
2022-11-24T23:43:49.215Z,4.21
2022-11-24T23:46:20.559Z,4.02
2022-11-24T23:48:48.457Z,3.92
2022-11-24T23:51:17.811Z,3.84
2022-11-24T23:53:45.472Z,3.79
2022-11-24T23:56:20.969Z,3.66
2022-11-24T23:58:47.978Z,3.17
